Time;durP1;ratioP1;P1;durP2;ratioP2;P2;SDS_P1;SDS_P2;PMS_P1;PMS_P2;Temp;Humidity;BMP_temperature;BMP_pressure;BME280_temperature;BME280_humidity;BME280_pressure;Samples;Min_cycle;Max_cycle;Signal;HPM_P1;HPM_P2
2023/03/03 00:02:39;;;;;;;22.35;13.23;;;;;;;3.41;79.14;100764.53;4893182;29;20048;-93
2023/03/03 00:05:22;;;;;;;20.42;12.38;;;;;;;2.80;79.54;100671.03;4899680;29;20060;-93
2023/03/03 00:08:14;;;;;;;21.90;13.43;;;;;;;3.41;80.86;100782.84;4901036;29;20076;-94
2023/03/03 00:10:54;;;;;;;21.88;13.02;;;;;;;3.05;81.15;100716.09;4897654;29;20597;-91
2023/03/03 00:13:49;;;;;;;23.85;13.45;;;;;;;3.19;81.73;100742.94;4908101;29;20051;-94
2023/03/03 00:16:25;;;;;;;24.38;13.70;;;;;;;3.40;82.24;100789.84;4898125;29;20068;-90
2023/03/03 00:18:56;;;;;;;21.42;13.65;;;;;;;3.38;83.28;100790.72;4925462;29;20569;-92
2023/03/03 00:21:57;;;;;;;22.80;13.85;;;;;;;2.71;83.91;100682.44;4899117;29;20120;-93
2023/03/03 00:24:37;;;;;;;27.75;15.65;;;;;;;3.33;85.46;100798.63;4917969;29;20048;-93
2023/03/03 00:27:33;;;;;;;25.88;15.05;;;;;;;2.95;86.47;100738.00;4914632;29;20096;-93
2023/03/03 00:30:28;;;;;;;24.38;14.80;;;;;;;3.06;87.48;100751.81;4916452;29;20040;-94
2023/03/03 00:33:34;;;;;;;25.33;15.75;;;;;;;2.90;88.22;100734.56;4907271;29;20045;-92
2023/03/03 00:36:21;;;;;;;27.88;16.70;;;;;;;3.24;89.48;100805.72;4905753;29;20061;-92
2023/03/03 00:38:57;;;;;;;28.10;16.70;;;;;;;3.12;90.91;100784.03;4918199;29;20071;-93
2023/03/03 00:41:30;;;;;;;28.73;16.77;;;;;;;2.87;91.72;100739.81;4891980;29;20043;-91
2023/03/03 00:44:27;;;;;;;32.42;17.73;;;;;;;2.81;92.52;100740.75;4890161;29;20080;-93
2023/03/03 00:48:06;;;;;;;31.92;17.48;;;;;;;3.17;93.27;100805.78;4913561;29;20061;-91
2023/03/03 00:50:53;;;;;;;29.55;17.58;;;;;;;3.01;94.04;100791.09;4918868;29;20047;-92
2023/03/03 00:53:41;;;;;;;32.55;18.40;;;;;;;2.46;94.61;100697.50;4899272;29;20044;-94
2023/03/03 01:03:25;;;;;;;34.38;18.90;;;;;;;2.88;97.89;100791.25;4855462;29;20114;-93
2023/03/03 01:06:14;;;;;;;33.45;19.60;;;;;;;3.02;98.47;100813.78;4913049;29;20056;-95
2023/03/03 01:08:56;;;;;;;37.28;20.70;;;;;;;3.02;98.49;100815.53;4913139;29;20055;-92
2023/03/03 01:11:40;;;;;;;33.45;19.08;;;;;;;2.65;99.48;100749.63;4928773;29;20040;-95
2023/03/03 01:14:34;;;;;;;34.28;19.40;;;;;;;2.95;99.88;100812.13;4892696;29;20093;-94
2023/03/03 01:17:16;;;;;;;32.17;19.13;;;;;;;2.32;100.00;100720.28;4914919;29;20033;-92
2023/03/03 01:19:52;;;;;;;33.70;21.15;;;;;;;2.52;100.00;100753.25;4906445;29;20055;-93
2023/03/03 01:22:20;;;;;;;35.63;21.25;;;;;;;2.81;100.00;100806.16;4913843;29;20044;-92
2023/03/03 01:24:47;;;;;;;35.25;19.38;;;;;;;2.46;100.00;100751.53;4908421;29;20060;-90
2023/03/03 01:27:14;;;;;;;36.38;21.25;;;;;;;2.81;100.00;100808.75;4914441;29;20052;-90
2023/03/03 01:29:44;;;;;;;35.65;20.80;;;;;;;2.71;100.00;100787.03;4914354;29;20051;-89
2023/03/03 01:32:13;;;;;;;38.05;21.88;;;;;;;2.83;100.00;100806.13;4917061;29;20056;-92
2023/03/03 01:34:43;;;;;;;37.05;21.05;;;;;;;2.46;100.00;100747.19;4912603;29;20064;-91
2023/03/03 01:37:11;;;;;;;34.75;21.30;;;;;;;2.79;100.00;100810.53;4917331;29;20045;-90
2023/03/03 01:39:53;;;;;;;35.40;21.67;;;;;;;2.15;100.00;100703.88;4914686;29;20036;-91
2023/03/03 01:42:27;;;;;;;37.15;21.90;;;;;;;2.73;100.00;100805.31;4924438;29;20046;-92
2023/03/03 01:45:19;;;;;;;38.30;22.05;;;;;;;2.69;100.00;100801.00;4901302;29;20537;-92
2023/03/03 01:48:09;;;;;;;40.20;23.17;;;;;;;2.60;100.00;100793.25;4904391;29;20463;-92
2023/03/03 01:50:56;;;;;;;37.08;22.33;;;;;;;2.62;100.00;100799.34;4888081;29;20045;-93
2023/03/03 01:53:43;;;;;;;37.83;22.02;;;;;;;2.46;100.00;100770.69;4908704;29;20044;-93
2023/03/03 01:56:15;;;;;;;40.13;22.77;;;;;;;2.49;100.00;100779.41;4917270;29;20044;-91
2023/03/03 01:59:00;;;;;;;42.72;22.95;;;;;;;2.59;100.00;100787.16;4922090;29;20056;-91
2023/03/03 02:01:35;;;;;;;42.05;23.70;;;;;;;2.36;100.00;100769.00;4912323;29;20047;-93
2023/03/03 02:04:10;;;;;;;40.70;23.02;;;;;;;1.86;100.00;100688.44;4925772;29;20052;-92
2023/03/03 02:06:46;;;;;;;44.95;23.58;;;;;;;2.47;100.00;100795.97;4914316;29;20037;-92
2023/03/03 02:09:25;;;;;;;41.22;23.00;;;;;;;2.28;100.00;100763.00;4900915;29;20057;-93
2023/03/03 02:12:07;;;;;;;41.33;23.17;;;;;;;2.42;100.00;100787.28;4900729;29;20388;-92
2023/03/03 02:14:36;;;;;;;40.55;23.27;;;;;;;2.38;100.00;100798.63;4895817;29;20041;-93
2023/03/03 02:17:06;;;;;;;41.92;22.95;;;;;;;2.06;100.00;100738.75;4903932;29;20151;-92
2023/03/03 02:20:27;;;;;;;45.28;24.95;;;;;;;2.32;100.00;100785.63;4900396;29;20080;-93
2023/03/03 02:23:46;;;;;;;43.40;24.60;;;;;;;2.17;100.00;100771.78;4858757;29;20057;-93
2023/03/03 02:26:29;;;;;;;42.97;23.70;;;;;;;2.26;100.00;100792.63;4887535;29;20641;-93
2023/03/03 02:29:08;;;;;;;44.15;25.15;;;;;;;2.23;100.00;100790.88;4903942;29;20504;-94
2023/03/03 02:31:36;;;;;;;44.28;24.42;;;;;;;2.00;100.00;100758.84;4912367;29;20056;-92
2023/03/03 02:34:07;;;;;;;43.55;24.30;;;;;;;2.18;100.00;100797.03;4920227;29;20043;-92
2023/03/03 02:36:38;;;;;;;46.28;26.30;;;;;;;2.01;100.00;100760.59;4906417;29;20382;-91
2023/03/03 02:42:57;;;;;;;43.17;25.35;;;;;;;2.02;100.00;100789.31;4898836;29;20047;-94
2023/03/03 02:45:29;;;;;;;41.53;23.55;;;;;;;1.68;100.00;100723.34;4902679;29;20053;-92
2023/03/03 02:48:31;;;;;;;43.35;23.85;;;;;;;1.64;100.00;100721.63;4903937;29;20192;-94
2023/03/03 02:51:02;;;;;;;43.25;24.40;;;;;;;1.48;100.00;100696.47;4901578;29;20131;-94
2023/03/03 02:53:35;;;;;;;48.70;25.90;;;;;;;1.78;100.00;100752.88;4908393;29;20104;-95
2023/03/03 02:56:08;;;;;;;45.88;25.65;;;;;;;2.14;100.00;100809.25;4883276;29;20577;-96
2023/03/03 02:58:44;;;;;;;51.28;26.98;;;;;;;1.80;100.00;100743.28;4902810;29;20111;-95
2023/03/03 03:01:31;;;;;;;47.35;25.13;;;;;;;1.52;100.00;100710.38;4900943;29;20116;-92
2023/03/03 03:03:59;;;;;;;49.13;25.60;;;;;;;1.87;100.00;100763.28;4892465;29;20325;-93
2023/03/03 03:06:29;;;;;;;46.65;26.25;;;;;;;2.11;100.00;100804.03;4906513;29;20048;-91
2023/03/03 03:09:05;;;;;;;51.60;27.80;;;;;;;1.89;100.00;100777.16;4912252;29;20085;-94
2023/03/03 03:11:47;;;;;;;50.55;27.05;;;;;;;1.54;100.00;100709.50;4907036;29;20051;-94
2023/03/03 03:14:27;;;;;;;;;;;;;;;2.04;100.00;100811.06;4917810;29;20086;-92
2023/03/03 03:16:58;;;;;;;49.35;26.40;;;;;;;1.37;100.00;100704.38;4907587;29;19927;-92
2023/03/03 03:19:33;;;;;;;48.97;26.20;;;;;;;1.61;100.00;100750.34;4921670;29;20071;-93
2023/03/03 03:22:07;;;;;;;51.08;26.33;;;;;;;1.62;100.00;100739.03;4919765;29;20040;-92
2023/03/03 03:24:35;;;;;;;53.15;26.80;;;;;;;2.01;100.00;100812.81;4907220;29;20048;-92
2023/03/03 03:27:06;;;;;;;51.72;26.58;;;;;;;1.43;100.00;100713.88;4920387;29;20033;-93
2023/03/03 03:29:38;;;;;;;51.15;27.02;;;;;;;1.33;100.00;100709.59;4899424;29;20036;-94
2023/03/03 03:32:11;;;;;;;54.67;28.27;;;;;;;1.93;100.00;100806.75;4909458;29;20100;-94
2023/03/03 03:34:40;;;;;;;55.97;29.23;;;;;;;1.71;100.00;100787.72;4907296;29;20045;-92
2023/03/03 03:37:16;;;;;;;53.83;28.67;;;;;;;1.73;100.00;100801.66;4915024;29;20052;-91
2023/03/03 03:39:52;;;;;;;48.05;26.23;;;;;;;1.82;100.00;100814.66;4914879;29;20056;-92
2023/03/03 03:42:30;;;;;;;51.50;27.83;;;;;;;1.75;100.00;100805.97;4909908;29;20041;-91
2023/03/03 03:44:57;;;;;;;56.20;28.98;;;;;;;1.65;100.00;100800.81;4901191;29;20078;-92
2023/03/03 03:47:27;;;;;;;55.38;29.27;;;;;;;1.43;100.00;100766.06;4915761;29;20055;-92
2023/03/03 03:49:56;;;;;;;55.13;28.15;;;;;;;1.77;100.00;100825.09;4913917;29;20047;-92
2023/03/03 03:52:23;;;;;;;53.92;27.80;;;;;;;1.54;100.00;100785.19;4919804;29;20108;-93
2023/03/03 03:54:56;;;;;;;53.60;27.73;;;;;;;1.61;100.00;100799.94;4909685;29;20043;-92
2023/03/03 03:57:36;;;;;;;57.63;29.33;;;;;;;1.72;100.00;100826.03;4925896;29;20079;-92
2023/03/03 04:00:12;;;;;;;56.45;28.98;;;;;;;1.44;100.00;100778.25;4918444;29;20131;-92
2023/03/03 04:02:46;;;;;;;52.10;27.75;;;;;;;1.02;100.00;100706.25;4921477;29;20092;-93
2023/03/03 04:05:29;;;;;;;53.53;28.38;;;;;;;1.70;100.00;100822.53;4921564;29;20059;-93
2023/03/03 04:08:04;;;;;;;55.33;28.73;;;;;;;1.74;100.00;100819.03;4928689;29;20105;-94
2023/03/03 04:10:33;;;;;;;53.40;27.98;;;;;;;1.34;100.00;100753.09;4916028;29;20040;-89
2023/03/03 04:13:03;;;;;;;57.25;29.75;;;;;;;1.40;100.00;100768.72;4936095;29;20160;-90
2023/03/03 04:15:37;;;;;;;53.05;29.48;;;;;;;1.22;100.00;100740.09;4916518;29;20049;-89
2023/03/03 04:18:05;;;;;;;60.03;29.70;;;;;;;1.31;100.00;100764.38;4915592;29;20072;-94
2023/03/03 04:20:33;;;;;;;60.65;31.13;;;;;;;0.89;100.00;100714.97;4895776;29;20044;-90
2023/03/03 04:23:04;;;;;;;57.03;29.73;;;;;;;1.54;100.00;100832.19;4913134;29;20033;-90
2023/03/03 04:25:39;;;;;;;63.00;31.63;;;;;;;1.25;100.00;100790.53;4919477;29;20048;-90
2023/03/03 04:28:13;;;;;;;62.45;31.00;;;;;;;1.46;100.00;100835.66;4911595;29;20389;-90
2023/03/03 04:30:41;;;;;;;60.88;32.17;;;;;;;1.30;100.00;100801.78;4923516;29;20040;-89
2023/03/03 04:33:11;;;;;;;59.58;30.17;;;;;;;1.49;100.00;100835.66;4919646;29;20048;-92
2023/03/03 04:35:43;;;;;;;63.08;33.30;;;;;;;1.28;100.00;100805.25;4917077;29;20047;-92
2023/03/03 04:38:11;;;;;;;63.35;31.95;;;;;;;1.16;100.00;100797.47;4920800;29;20063;-91
2023/03/03 04:40:41;;;;;;;65.07;32.45;;;;;;;1.33;100.00;100824.41;4916848;29;20041;-91
2023/03/03 04:43:14;;;;;;;63.83;32.60;;;;;;;1.27;100.00;100832.22;4916880;29;20040;-92
2023/03/03 04:45:48;;;;;;;65.82;32.28;;;;;;;1.13;100.00;100816.59;4903210;29;20053;-91
2023/03/03 04:48:19;;;;;;;65.30;31.60;;;;;;;1.20;100.00;100833.13;4891720;29;20049;-91
2023/03/03 04:50:49;;;;;;;66.40;32.63;;;;;;;1.12;100.00;100833.13;4911844;29;20060;-95
2023/03/03 04:53:35;;;;;;;67.90;32.38;;;;;;;0.87;100.00;100801.00;4906716;29;20047;-94
2023/03/03 04:56:14;;;;;;;67.88;32.97;;;;;;;1.07;100.00;100840.13;4896280;29;20072;-94
2023/03/03 04:58:42;;;;;;;68.72;31.75;;;;;;;0.71;100.00;100783.66;4904263;29;20074;-95
2023/03/03 05:01:18;;;;;;;62.25;32.92;;;;;;;0.93;100.00;100824.47;4899938;29;20411;-92
2023/03/03 05:04:05;;;;;;;65.53;33.20;;;;;;;0.83;100.00;100814.03;4916095;29;20128;-93
2023/03/03 05:06:56;;;;;;;67.22;33.15;;;;;;;0.91;100.00;100854.91;4903806;29;20100;-95
2023/03/03 05:09:29;;;;;;;68.22;32.88;;;;;;;0.93;100.00;100855.78;4904814;29;20071;-93
2023/03/03 05:12:37;;;;;;;64.75;32.22;;;;;;;0.78;100.00;100842.75;4907936;29;20055;-93
2023/03/03 05:15:11;;;;;;;65.45;33.10;;;;;;;0.67;100.00;100834.03;4912788;29;20124;-92
2023/03/03 05:18:26;;;;;;;65.55;33.78;;;;;;;0.63;100.00;100851.41;4917715;29;20116;-95
2023/03/03 05:21:14;;;;;;;71.57;34.08;;;;;;;0.63;100.00;100858.38;4905254;29;20104;-92
2023/03/03 05:23:44;;;;;;;68.97;32.92;;;;;;;0.56;100.00;100861.84;4908468;29;20074;-92
2023/03/03 05:26:20;;;;;;;69.47;33.58;;;;;;;0.47;100.00;100869.66;4906897;29;20036;-91
2023/03/03 05:29:11;;;;;;;74.75;35.28;;;;;;;0.01;100.00;100783.59;4892397;29;20104;-93
2023/03/03 05:31:54;;;;;;;71.95;33.28;;;;;;;-0.25;100.00;100748.84;4914127;29;20100;-92
2023/03/03 05:34:24;;;;;;;70.38;33.08;;;;;;;-0.08;100.00;100789.66;4900858;29;20060;-91
2023/03/03 05:37:05;;;;;;;76.78;35.63;;;;;;;0.29;100.00;100866.16;4906302;29;20045;-92
2023/03/03 05:39:37;;;;;;;76.30;34.67;;;;;;;-0.01;100.00;100827.00;4890142;29;20060;-92
2023/03/03 05:42:07;;;;;;;82.45;36.72;;;;;;;-0.16;100.00;100814.78;4905603;29;20048;-92
2023/03/03 05:49:03;;;;;;;73.18;33.97;;;;;;;-0.25;100.00;100796.56;4914118;29;20088;-96
2023/03/03 05:52:23;;;;;;;76.30;35.92;;;;;;;-0.19;100.00;100816.53;4911475;29;20053;-91
2023/03/03 05:55:33;;;;;;;73.00;33.92;;;;;;;0.06;100.00;100854.78;4907931;29;20048;-94
2023/03/03 05:58:26;;;;;;;78.78;35.63;;;;;;;0.16;100.00;100881.75;4916001;29;20060;-94
2023/03/03 06:01:31;;;;;;;81.30;36.00;;;;;;;-0.28;100.00;100822.56;4917968;29;20052;-95
2023/03/03 06:04:44;;;;;;;75.20;34.70;;;;;;;0.05;100.00;100881.69;4912905;29;20464;-94
2023/03/03 06:07:48;;;;;;;78.85;34.40;;;;;;;0.07;100.00;100882.56;4913510;29;20052;-94
2023/03/03 06:10:59;;;;;;;79.78;36.03;;;;;;;-0.20;100.00;100859.03;5095616;23;20082;-93
2023/03/03 06:17:06;;;;;;;84.07;36.83;;;;;;;0.07;100.00;100908.59;4895444;29;20120;-93
2023/03/03 06:19:50;;;;;;;;;;;;;;;;;;;;;
2023/03/03 06:22:45;;;;;;;85.75;36.35;;;;;;;-0.33;100.00;100858.13;5049125;23;20050;-92
2023/03/03 06:25:38;;;;;;;84.57;36.53;;;;;;;-0.12;100.00;100880.75;4933500;29;20091;-94
2023/03/03 06:28:54;;;;;;;76.95;34.47;;;;;;;-0.17;100.00;100861.66;5249416;23;20046;-94
2023/03/03 06:44:34;;;;;;;70.82;33.30;;;;;;;0.33;100.00;100947.75;4318510;23;20192;-95
2023/03/03 06:50:50;;;;;;;71.85;33.67;;;;;;;0.48;100.00;100947.78;5173461;23;20063;-96
2023/03/03 06:54:16;;;;;;;75.75;32.63;;;;;;;0.40;100.00;100933.88;4955952;28;20058;-96
2023/03/03 07:03:31;;;;;;;71.65;31.77;;;;;;;0.80;100.00;100976.53;4929613;29;20063;-96
2023/03/03 07:07:02;;;;;;;75.32;33.42;;;;;;;0.48;100.00;100911.31;4889851;29;20033;-96
2023/03/03 07:10:12;;;;;;;;;;;;;;;;;;;;;
2023/03/03 07:13:28;;;;;;;69.53;31.85;;;;;;;1.00;100.00;100973.97;4949695;29;20047;-95
2023/03/03 07:16:50;;;;;;;68.00;31.27;;;;;;;1.09;100.00;100991.38;5301243;23;20250;-93
2023/03/03 07:31:57;;;;;;;68.95;31.75;;;;;;;1.41;100.00;101015.75;5505064;23;20067;-94
2023/03/03 07:35:38;;;;;;;62.03;29.77;;;;;;;1.45;100.00;101014.88;5229897;23;20059;-96
2023/03/03 07:38:54;;;;;;;63.75;29.42;;;;;;;0.89;100.00;100907.91;4956556;29;20044;-96
2023/03/03 07:42:38;;;;;;;65.85;29.50;;;;;;;1.21;100.00;100953.13;4960153;29;20062;-96
2023/03/03 07:45:56;;;;;;;63.78;31.08;;;;;;;1.75;100.00;101009.63;4914966;29;20050;-96
2023/03/03 07:50:03;;;;;;;;;;;;;;;;;;;;;
2023/03/03 08:11:08;;;;;;;53.15;26.85;;;;;;;2.08;100.00;101045.25;4699226;23;20358;-92
2023/03/03 08:14:37;;;;;;;54.22;25.85;;;;;;;1.81;100.00;100987.00;4894582;29;20513;-93
2023/03/03 08:18:00;;;;;;;55.13;26.40;;;;;;;1.54;100.00;100935.72;4892273;29;20055;-94
2023/03/03 08:39:30;;;;;;;54.17;27.48;;;;;;;2.39;100.00;101050.41;516210;27;20332;-94
2023/03/03 08:43:20;;;;;;;55.50;26.08;;;;;;;2.38;100.00;101057.38;2044145;23;20227;-93
2023/03/03 08:46:25;;;;;;;48.47;24.27;;;;;;;2.50;100.00;101055.63;4945887;29;20054;-95
2023/03/03 08:49:19;;;;;;;53.75;24.63;;;;;;;2.15;100.00;100987.78;4940215;29;20051;-94
2023/03/03 08:51:55;;;;;;;51.22;24.63;;;;;;;2.19;100.00;101011.28;4931922;29;20068;-96
2023/03/03 08:54:42;;;;;;;47.53;24.75;;;;;;;1.62;100.00;100937.41;4948780;29;20087;-95
2023/03/03 08:57:18;;;;;;;55.42;26.20;;;;;;;1.99;100.00;101026.13;4961406;29;20077;-95
2023/03/03 08:59:51;;;;;;;46.13;23.65;;;;;;;1.47;100.00;100945.28;4946932;29;20044;-93
2023/03/03 09:02:38;;;;;;;53.17;24.45;;;;;;;2.12;100.00;101040.91;4938718;29;20039;-95
2023/03/03 09:05:25;;;;;;;51.00;23.52;;;;;;;1.99;100.00;100997.41;5044466;23;20075;-93
2023/03/03 09:08:07;;;;;;;49.17;24.42;;;;;;;1.80;100.00;100956.53;4949177;28;20055;-96
2023/03/03 09:11:18;;;;;;;;;;;;;;;;;;;;;
2023/03/03 09:14:19;;;;;;;49.10;23.98;;;;;;;2.00;100.00;100981.72;5062227;23;20047;-94
2023/03/03 09:17:02;;;;;;;50.00;22.70;;;;;;;1.96;100.00;100956.47;4971774;28;20186;-94
2023/03/03 09:21:06;;;;;;;53.33;23.77;;;;;;;2.78;100.00;101067.69;4950840;28;20043;-95
2023/03/03 09:24:11;;;;;;;47.38;21.98;;;;;;;2.47;100.00;101019.91;4961907;28;20047;-93
2023/03/03 09:27:19;;;;;;;40.90;21.45;;;;;;;2.72;100.00;101067.72;4953995;29;20106;-95
2023/03/03 09:30:41;;;;;;;46.20;22.17;;;;;;;2.70;100.00;101059.88;4953163;28;20039;-93
2023/03/03 09:33:56;;;;;;;39.35;20.65;;;;;;;2.91;100.00;101069.38;4966812;28;20043;-95
2023/03/03 09:36:38;;;;;;;40.47;21.13;;;;;;;2.47;100.00;100955.41;4965208;28;20051;-93
2023/03/03 09:39:35;;;;;;;44.50;21.00;;;;;;;2.94;100.00;101009.19;4966671;28;20122;-93
2023/03/03 09:42:49;;;;;;;41.70;20.58;;;;;;;3.48;100.00;101075.13;4966743;28;20055;-92
2023/03/03 09:45:47;;;;;;;43.25;21.55;;;;;;;3.64;100.00;101060.16;4966288;28;20043;-94
2023/03/03 09:49:08;;;;;;;42.65;20.80;;;;;;;3.93;100.00;101073.03;4965834;28;20035;-91
2023/03/03 09:52:24;;;;;;;42.25;21.48;;;;;;;4.17;100.00;101078.03;4885676;29;20049;-91
2023/03/03 09:55:30;;;;;;;38.03;19.52;;;;;;;4.23;100.00;101036.91;4967451;28;20055;-94
2023/03/03 09:58:30;;;;;;;;;;;;;;;4.62;98.81;101081.91;4960294;28;20058;-91
2023/03/03 10:01:53;;;;;;;38.55;19.30;;;;;;;4.49;95.74;101080.31;4959741;28;19950;-92
2023/03/03 10:05:01;;;;;;;;;;;;;;;4.42;97.11;101089.97;4936791;28;20043;-90
2023/03/03 10:07:55;;;;;;;34.75;17.65;;;;;;;4.30;94.58;101063.91;4952773;28;19926;-91
2023/03/03 10:11:02;;;;;;;39.38;19.40;;;;;;;4.48;96.14;101096.94;4957417;28;20047;-94
2023/03/03 10:14:06;;;;;;;36.03;18.58;;;;;;;4.54;93.94;101089.00;4958964;28;20608;-92
2023/03/03 10:16:49;;;;;;;38.75;19.10;;;;;;;4.47;93.41;101098.69;4936787;29;20050;-91
2023/03/03 10:20:00;;;;;;;31.63;16.95;;;;;;;4.10;92.40;101035.28;4956718;28;20043;-93
2023/03/03 10:22:47;;;;;;;32.72;17.75;;;;;;;4.32;93.79;101109.31;4949533;28;20035;-90
2023/03/03 10:26:09;;;;;;;36.60;17.85;;;;;;;4.43;93.94;101114.44;4954708;29;20047;-93
2023/03/03 10:29:37;;;;;;;34.22;17.00;;;;;;;4.54;91.92;101120.47;4926445;28;20078;-94
2023/03/03 10:32:48;;;;;;;37.13;18.13;;;;;;;4.33;93.28;101111.06;4957645;28;20055;-93
2023/03/03 10:35:38;;;;;;;32.28;16.85;;;;;;;4.17;94.41;101083.28;4951702;28;20062;-94
2023/03/03 10:39:15;;;;;;;31.77;16.35;;;;;;;4.34;94.42;101119.81;4964188;28;20047;-94
2023/03/03 10:42:23;;;;;;;31.73;16.67;;;;;;;4.23;93.52;101084.09;4965263;28;20054;-93
2023/03/03 10:45:23;;;;;;;32.65;16.58;;;;;;;4.43;90.43;101094.34;4964114;28;20046;-94
2023/03/03 10:48:37;;;;;;;32.65;16.88;;;;;;;4.14;88.74;101008.16;4971485;29;20047;-93
2023/03/03 10:51:50;;;;;;;27.75;14.70;;;;;;;4.55;86.92;101069.75;4959527;28;20039;-92
2023/03/03 10:55:00;;;;;;;30.98;16.27;;;;;;;4.90;86.89;101099.03;4961160;28;20047;-93
2023/03/03 10:58:13;;;;;;;30.20;16.00;;;;;;;5.11;86.62;101081.28;4954939;28;20031;-94
2023/03/03 11:07:31;;;;;;;29.40;15.32;;;;;;;5.28;82.16;101103.78;4964135;28;20058;-92
2023/03/03 11:14:16;;;;;;;27.70;14.95;;;;;;;5.41;80.60;101106.25;4996705;23;20044;-94
2023/03/03 11:18:10;;;;;;;25.48;15.02;;;;;;;5.50;79.43;101121.88;4966239;28;20099;-92
2023/03/03 11:21:49;;;;;;;27.38;14.07;;;;;;;5.44;79.09;101101.81;4960584;29;20046;-92
2023/03/03 11:29:00;;;;;;;25.33;13.98;;;;;;;5.35;78.37;101093.22;4958169;29;20051;-91
2023/03/03 11:31:50;;;;;;;24.85;13.98;;;;;;;5.39;77.27;101077.38;4970140;28;20061;-93
2023/03/03 11:35:28;;;;;;;25.45;13.43;;;;;;;5.65;78.26;101084.88;4966626;28;20039;-94
2023/03/03 11:38:25;;;;;;;24.65;13.90;;;;;;;6.03;77.09;101080.75;4977652;28;20039;-94
2023/03/03 11:41:32;;;;;;;24.45;12.68;;;;;;;6.34;74.14;101076.66;4975260;28;20035;-94
2023/03/03 11:44:59;;;;;;;27.33;14.48;;;;;;;6.42;71.37;101048.47;4974526;29;20074;-92
2023/03/03 11:48:13;;;;;;;24.70;14.00;;;;;;;6.21;69.14;101012.03;4963552;28;20095;-92
2023/03/03 11:51:27;;;;;;;24.63;13.73;;;;;;;6.23;68.90;101002.38;4964669;28;20070;-93
2023/03/03 11:54:21;;;;;;;24.73;13.10;;;;;;;6.64;67.15;101064.69;4969463;28;20051;-96
2023/03/03 11:57:33;;;;;;;23.63;13.10;;;;;;;6.29;68.62;101002.25;4934227;29;20051;-94
2023/03/03 12:00:32;;;;;;;24.55;13.98;;;;;;;6.74;66.79;101060.13;4962203;28;20161;-93
2023/03/03 12:03:28;;;;;;;26.42;13.73;;;;;;;6.83;65.61;101071.31;4968931;28;20051;-94
2023/03/03 12:06:45;;;;;;;26.45;14.15;;;;;;;6.54;66.05;101027.16;4958252;29;20043;-93
2023/03/03 12:10:21;;;;;;;23.50;12.65;;;;;;;6.68;65.82;101034.78;4884442;29;20029;-94
2023/03/03 12:13:16;;;;;;;24.60;12.63;;;;;;;6.48;64.79;100995.72;4875371;29;20065;-92
2023/03/03 12:16:39;;;;;;;27.90;13.50;;;;;;;6.39;66.13;100988.00;4886905;29;20057;-92
2023/03/03 12:19:59;;;;;;;24.42;13.15;;;;;;;6.87;66.03;101030.84;4896775;29;20053;-92
2023/03/03 12:23:06;;;;;;;25.58;13.80;;;;;;;6.72;65.61;101011.91;4899141;29;20136;-93
2023/03/03 12:25:53;;;;;;;22.95;13.18;;;;;;;6.20;65.41;100916.50;4878483;29;20053;-94
2023/03/03 12:28:39;;;;;;;26.63;13.45;;;;;;;6.89;64.94;101013.28;4893943;29;20049;-93
2023/03/03 12:32:20;;;;;;;23.00;12.80;;;;;;;6.78;64.48;100970.50;4912849;29;20174;-92
2023/03/03 12:35:08;;;;;;;23.40;12.88;;;;;;;6.79;64.22;100961.69;4933262;29;20088;-92
2023/03/03 12:38:22;;;;;;;22.52;12.73;;;;;;;6.90;62.99;100986.03;4977285;29;20111;-93
2023/03/03 12:41:14;;;;;;;23.80;13.35;;;;;;;7.13;62.52;101003.94;4970657;29;20031;-93
2023/03/03 12:44:33;;;;;;;23.27;13.20;;;;;;;7.03;62.63;101002.44;4960191;28;20106;-92
2023/03/03 12:48:00;;;;;;;23.08;12.95;;;;;;;7.14;63.67;101000.41;4961929;29;20047;-93
2023/03/03 12:51:09;;;;;;;21.05;12.38;;;;;;;7.25;62.09;101001.00;4964451;29;20532;-92
2023/03/03 12:54:03;;;;;;;;;;;;;;;7.26;60.79;101010.63;4959100;28;20039;-93
2023/03/03 12:57:03;;;;;;;21.83;11.50;;;;;;;6.78;61.76;100922.25;4957283;28;19968;-93
2023/03/03 13:00:06;;;;;;;20.60;11.95;;;;;;;7.40;62.02;100999.78;4950885;28;20047;-93
2023/03/03 13:03:04;;;;;;;29.70;16.27;;;;;;;7.14;58.70;100938.97;4950944;29;20042;-93
2023/03/03 13:06:02;;;;;;;41.50;23.48;;;;;;;6.83;61.24;100899.34;4957123;29;20047;-93
2023/03/03 13:09:05;;;;;;;63.17;35.92;;;;;;;7.39;62.20;100985.75;4959768;29;20047;-95
2023/03/03 13:12:04;;;;;;;61.83;36.85;;;;;;;7.29;62.33;100980.72;4963542;28;20039;-95
2023/03/03 13:15:07;;;;;;;59.15;35.92;;;;;;;7.03;63.92;100936.59;4959778;29;20074;-92
2023/03/03 13:18:20;;;;;;;57.20;33.65;;;;;;;7.17;63.14;100981.91;4965272;29;20035;-93
2023/03/03 13:21:22;;;;;;;51.75;30.80;;;;;;;7.09;64.02;100983.81;4964891;28;20054;-93
2023/03/03 13:24:42;;;;;;;47.97;29.10;;;;;;;7.10;64.03;100969.75;4954029;28;20066;-93
2023/03/03 13:27:42;;;;;;;43.03;26.38;;;;;;;7.08;64.41;100968.09;4967577;29;20043;-93
2023/03/03 13:30:34;;;;;;;42.40;25.40;;;;;;;6.91;64.99;100923.72;4967181;29;20086;-93
2023/03/03 13:33:27;;;;;;;40.03;23.45;;;;;;;7.24;64.30;100967.66;4955832;29;20471;-91
2023/03/03 13:36:17;;;;;;;39.83;22.05;;;;;;;7.35;63.95;100972.69;4958660;29;20039;-92
2023/03/03 13:39:21;;;;;;;37.25;21.30;;;;;;;7.28;63.32;100948.25;4944175;29;20047;-94
2023/03/03 13:42:36;;;;;;;34.97;20.90;;;;;;;7.33;63.86;100924.44;4951820;29;20051;-93
2023/03/03 13:45:46;;;;;;;38.70;21.08;;;;;;;7.72;62.76;100964.69;4871916;29;20056;-90
2023/03/03 13:48:34;;;;;;;31.88;18.60;;;;;;;7.68;61.71;100963.06;4885532;29;20048;-92
2023/03/03 13:51:55;;;;;;;29.50;17.30;;;;;;;7.62;60.87;100958.81;4888324;29;20045;-92
2023/03/03 13:55:04;;;;;;;29.35;17.13;;;;;;;7.55;60.89;100954.63;4898939;29;20033;-94
2023/03/03 13:58:12;;;;;;;27.77;16.23;;;;;;;7.12;60.84;100881.06;4950570;29;20432;-94
2023/03/03 14:01:24;;;;;;;24.48;14.73;;;;;;;6.99;60.52;100855.94;4962797;29;20050;-93
2023/03/03 14:04:50;;;;;;;24.77;14.73;;;;;;;7.67;61.01;100940.25;4972178;28;20103;-93
2023/03/03 14:08:05;;;;;;;25.55;15.10;;;;;;;7.49;59.56;100885.38;4971585;28;20047;-93
2023/03/03 14:11:01;;;;;;;26.67;16.13;;;;;;;7.30;60.09;100851.59;4970703;29;20042;-90
2023/03/03 14:14:33;;;;;;;23.38;13.95;;;;;;;7.72;58.93;100933.06;4970560;28;20058;-94
2023/03/03 14:18:26;;;;;;;19.25;11.82;;;;;;;7.13;59.15;100850.31;4965014;29;20047;-94
2023/03/03 14:21:30;;;;;;;21.08;11.95;;;;;;;7.56;59.93;100942.28;4965639;29;20097;-92
2023/03/03 14:24:28;;;;;;;21.33;11.75;;;;;;;7.38;59.65;100912.03;4959135;29;20055;-93
2023/03/03 14:27:50;;;;;;;18.33;10.32;;;;;;;7.14;59.48;100862.56;4960575;28;20071;-94
2023/03/03 14:30:43;;;;;;;15.77;9.95;;;;;;;7.33;59.25;100898.97;4958267;28;20372;-94
2023/03/03 14:33:25;;;;;;;16.27;9.95;;;;;;;7.25;59.48;100893.00;4956658;29;20074;-90
2023/03/03 14:36:12;;;;;;;16.05;9.50;;;;;;;7.12;59.39;100867.88;4941734;29;20074;-94
2023/03/03 14:39:23;;;;;;;14.30;8.43;;;;;;;7.28;59.44;100881.53;4971623;28;20059;-95
2023/03/03 14:42:50;;;;;;;17.30;10.13;;;;;;;7.44;59.34;100930.28;4968643;28;20039;-93
2023/03/03 14:45:41;;;;;;;18.77;10.55;;;;;;;7.39;59.79;100929.56;4976071;28;20031;-95
2023/03/03 14:48:28;;;;;;;;;;;;;;;7.33;60.08;100934.97;4964454;29;20962;-93
2023/03/03 14:51:54;;;;;;;15.02;8.85;;;;;;;6.92;60.62;100878.06;4956282;29;19997;-93
2023/03/03 14:54:38;;;;;;;14.63;9.13;;;;;;;7.16;60.26;100919.59;4927144;29;20040;-93
2023/03/03 14:57:51;;;;;;;15.88;8.80;;;;;;;7.19;60.83;100914.25;4924101;29;20059;-93
2023/03/03 15:00:34;;;;;;;15.75;8.95;;;;;;;7.24;60.44;100920.25;4913060;29;20056;-93
2023/03/03 15:03:36;;;;;;;14.77;8.38;;;;;;;7.17;60.97;100899.38;4935701;29;20028;-94
2023/03/03 15:06:32;;;;;;;12.55;8.05;;;;;;;7.20;60.89;100902.81;4953789;29;20078;-95
2023/03/03 15:09:50;;;;;;;13.82;8.10;;;;;;;7.28;61.12;100918.41;4962555;28;20087;-92